createdAt,value
2024-01-21T00:00:26.273Z,93.55
2024-01-21T00:02:52.845Z,94.15
2024-01-21T00:05:19.330Z,94.98
2024-01-21T00:07:45.882Z,95.06
2024-01-21T00:10:12.320Z,95.03
2024-01-21T00:12:38.810Z,95.15
2024-01-21T00:15:05.343Z,95.74
2024-01-21T00:17:31.902Z,96.01
2024-01-21T00:19:58.397Z,96.13
2024-01-21T00:22:24.879Z,95.36
2024-01-21T00:24:51.314Z,96.32
2024-01-21T00:27:17.821Z,96.59
2024-01-21T00:29:44.365Z,96.57
2024-01-21T00:32:12.057Z,97.22
2024-01-21T00:34:38.513Z,97.41
2024-01-21T00:37:05.008Z,97.83
2024-01-21T00:39:31.493Z,97.54
2024-01-21T00:42:04.866Z,97.23
2024-01-21T00:44:35.118Z,97.44
2024-01-21T00:47:01.547Z,97.78
2024-01-21T00:49:28.087Z,97.78
2024-01-21T00:51:55.002Z,98.52
2024-01-21T00:54:21.566Z,98.63
2024-01-21T00:56:48.028Z,98.34
2024-01-21T00:59:14.566Z,99.17
2024-01-21T01:01:41.125Z,99.50
2024-01-21T01:04:07.755Z,99.43
2024-01-21T01:06:34.517Z,99.29
2024-01-21T01:09:01.014Z,99.29
2024-01-21T01:11:27.451Z,99.33
2024-01-21T01:13:54.010Z,100.00
2024-01-21T01:16:20.448Z,99.84
2024-01-21T01:18:47.005Z,100.00
2024-01-21T01:21:13.623Z,99.89
2024-01-21T01:23:40.123Z,100.00
2024-01-21T01:26:06.587Z,100.00
2024-01-21T01:28:33.099Z,100.00
2024-01-21T01:30:59.591Z,100.00
2024-01-21T01:33:26.284Z,100.00
2024-01-21T01:35:53.076Z,100.00
2024-01-21T01:38:19.561Z,100.00
2024-01-21T01:40:46.058Z,100.00
2024-01-21T01:43:12.649Z,100.00
2024-01-21T01:45:39.101Z,100.00
2024-01-21T01:48:05.618Z,100.00
2024-01-21T01:50:32.155Z,100.00
2024-01-21T01:52:58.609Z,100.00
2024-01-21T01:55:25.045Z,100.00
2024-01-21T01:57:51.670Z,100.00
2024-01-21T02:00:18.214Z,100.00
2024-01-21T02:02:44.749Z,100.00
2024-01-21T02:05:11.320Z,100.00
2024-01-21T02:07:37.810Z,100.00
2024-01-21T02:10:04.270Z,99.83
2024-01-21T02:12:31.680Z,100.00
2024-01-21T02:14:58.181Z,100.00
2024-01-21T02:17:24.617Z,100.00
2024-01-21T02:19:53.611Z,100.00
2024-01-21T02:22:20.084Z,100.00
2024-01-21T02:24:46.677Z,100.00
2024-01-21T02:27:13.399Z,99.99
2024-01-21T02:29:39.893Z,99.89
2024-01-21T02:32:06.443Z,99.76
2024-01-21T02:34:33.023Z,99.99
2024-01-21T02:36:59.571Z,99.92
2024-01-21T02:39:26.093Z,99.84
2024-01-21T02:41:52.669Z,99.53
2024-01-21T02:44:19.169Z,100.00
2024-01-21T02:46:45.679Z,99.52
2024-01-21T02:49:12.528Z,99.10
2024-01-21T02:51:39.112Z,99.39
2024-01-21T02:54:05.557Z,99.33
2024-01-21T02:56:32.109Z,99.67
2024-01-21T02:58:58.601Z,99.41
2024-01-21T03:01:25.310Z,99.18
2024-01-21T03:03:52.165Z,98.86
2024-01-21T03:06:18.745Z,98.86
2024-01-21T03:08:45.255Z,99.38
2024-01-21T03:11:11.778Z,98.92
2024-01-21T03:13:38.248Z,98.93
2024-01-21T03:16:04.671Z,99.20
2024-01-21T03:18:31.263Z,98.48
2024-01-21T03:20:57.732Z,98.54
2024-01-21T03:23:24.133Z,99.01
2024-01-21T03:25:50.680Z,98.66
2024-01-21T03:28:17.147Z,99.00
2024-01-21T03:30:43.729Z,99.59
2024-01-21T03:33:10.508Z,99.19
2024-01-21T03:35:37.178Z,98.44
2024-01-21T03:38:04.791Z,98.06
2024-01-21T03:40:31.357Z,97.38
2024-01-21T03:42:57.815Z,97.67
2024-01-21T03:45:24.317Z,97.46
2024-01-21T03:47:50.947Z,97.55
2024-01-21T03:50:17.422Z,97.16
2024-01-21T03:52:43.931Z,97.11
2024-01-21T03:55:10.459Z,97.67
2024-01-21T03:57:36.954Z,98.10
2024-01-21T04:00:03.461Z,97.04
2024-01-21T04:02:30.442Z,96.91
2024-01-21T04:04:57.015Z,97.55
2024-01-21T04:07:23.524Z,97.59
2024-01-21T04:09:50.137Z,96.92
2024-01-21T04:12:16.683Z,97.00
2024-01-21T04:14:43.200Z,96.34
2024-01-21T04:17:09.696Z,96.33
2024-01-21T04:19:36.190Z,96.52
2024-01-21T04:22:02.709Z,96.66
2024-01-21T04:24:29.319Z,95.97
2024-01-21T04:26:55.786Z,96.28
2024-01-21T04:29:22.243Z,96.51
2024-01-21T04:31:48.818Z,96.13
2024-01-21T04:34:15.389Z,96.33
2024-01-21T04:36:41.960Z,96.76
2024-01-21T04:39:08.566Z,96.82
2024-01-21T04:41:35.009Z,97.21
2024-01-21T04:44:01.490Z,96.89
2024-01-21T04:46:28.003Z,97.13
2024-01-21T04:48:54.490Z,96.83
2024-01-21T04:51:20.990Z,96.17
2024-01-21T04:53:47.532Z,96.57
2024-01-21T04:56:13.988Z,95.92
2024-01-21T04:58:40.446Z,96.13
2024-01-21T05:01:07.180Z,95.64
2024-01-21T05:03:33.771Z,95.80
2024-01-21T05:06:00.255Z,96.53
2024-01-21T05:08:26.764Z,96.18
2024-01-21T05:10:53.216Z,95.17
2024-01-21T05:13:19.704Z,94.76
2024-01-21T05:15:46.291Z,95.01
2024-01-21T05:18:12.759Z,94.87
2024-01-21T05:20:39.216Z,94.97
2024-01-21T05:23:05.747Z,94.99
2024-01-21T05:25:32.245Z,94.70
2024-01-21T05:27:58.769Z,95.03
2024-01-21T05:30:25.330Z,95.74
2024-01-21T05:32:51.842Z,95.24
2024-01-21T05:35:18.268Z,95.20
2024-01-21T05:37:44.833Z,94.84
2024-01-21T05:40:11.361Z,94.25
2024-01-21T05:42:37.828Z,94.23
2024-01-21T05:45:04.323Z,94.25
2024-01-21T05:47:30.929Z,93.71
2024-01-21T05:49:57.457Z,93.65
2024-01-21T05:52:24.096Z,93.57
2024-01-21T05:54:50.872Z,93.94
2024-01-21T05:57:17.338Z,94.10
2024-01-21T05:59:43.861Z,93.46
2024-01-21T06:02:10.425Z,93.51
2024-01-21T06:04:36.909Z,94.00
2024-01-21T06:07:03.409Z,93.71
2024-01-21T06:09:29.938Z,93.04
2024-01-21T06:11:56.391Z,92.90
2024-01-21T06:14:23.230Z,93.06
2024-01-21T06:16:49.725Z,93.18
2024-01-21T06:19:16.362Z,93.09
2024-01-21T06:21:42.965Z,92.76
2024-01-21T06:24:09.406Z,92.95
2024-01-21T06:26:35.857Z,92.75
2024-01-21T06:29:02.406Z,92.38
2024-01-21T06:31:28.896Z,92.70
2024-01-21T06:33:55.487Z,92.56
2024-01-21T06:36:22.090Z,92.51
2024-01-21T06:38:48.560Z,93.41
2024-01-21T06:41:15.009Z,92.84
2024-01-21T06:43:41.552Z,91.69
2024-01-21T06:46:08.004Z,91.92
2024-01-21T06:48:34.633Z,91.82
2024-01-21T06:51:01.242Z,91.73
2024-01-21T06:53:27.676Z,91.62
2024-01-21T06:55:54.119Z,91.16
2024-01-21T06:58:20.620Z,92.11
2024-01-21T07:00:47.147Z,90.44
2024-01-21T07:03:13.748Z,89.81
2024-01-21T07:05:40.363Z,89.24
2024-01-21T07:08:06.863Z,89.87
2024-01-21T07:10:33.314Z,87.93
2024-01-21T07:13:02.316Z,84.61
2024-01-21T07:15:28.985Z,85.33
2024-01-21T07:17:56.948Z,87.50
2024-01-21T07:20:23.665Z,87.50
2024-01-21T07:22:50.186Z,87.65
2024-01-21T07:25:16.610Z,88.62
2024-01-21T07:27:43.198Z,88.59
2024-01-21T07:30:09.749Z,87.42
2024-01-21T07:32:36.283Z,87.80
2024-01-21T07:35:02.900Z,86.54
2024-01-21T07:37:30.279Z,84.78
2024-01-21T07:39:56.756Z,78.82
2024-01-21T07:42:23.371Z,78.96
2024-01-21T07:44:49.852Z,79.49
2024-01-21T07:47:16.349Z,82.43
2024-01-21T07:49:43.057Z,83.85
2024-01-21T07:52:09.582Z,84.84
2024-01-21T07:54:36.088Z,84.43
2024-01-21T07:57:02.683Z,84.15
2024-01-21T07:59:29.114Z,83.10
2024-01-21T08:01:55.638Z,82.56
2024-01-21T08:04:22.309Z,82.67
2024-01-21T08:06:48.829Z,84.36
2024-01-21T08:09:16.704Z,84.96
2024-01-21T08:11:45.115Z,84.42
2024-01-21T08:14:11.560Z,83.83
2024-01-21T08:16:38.040Z,83.83
2024-01-21T08:19:04.654Z,83.00
2024-01-21T08:21:31.717Z,82.86
2024-01-21T08:23:58.184Z,82.34
2024-01-21T08:26:24.814Z,73.24
2024-01-21T08:28:51.304Z,59.09
2024-01-21T08:31:17.747Z,58.05
2024-01-21T08:33:44.444Z,56.19
2024-01-21T08:36:11.024Z,65.37
2024-01-21T08:38:37.498Z,71.60
2024-01-21T08:41:04.076Z,74.52
2024-01-21T08:43:30.576Z,76.35
2024-01-21T08:45:57.234Z,77.59
2024-01-21T08:48:25.338Z,77.60
2024-01-21T08:50:51.844Z,77.78
2024-01-21T08:53:18.303Z,76.91
2024-01-21T08:55:44.890Z,74.58
2024-01-21T08:58:11.369Z,69.34
2024-01-21T09:00:37.940Z,66.09
2024-01-21T09:03:04.585Z,69.37
2024-01-21T09:05:31.076Z,64.42
2024-01-21T09:07:57.572Z,61.52
2024-01-21T09:10:24.087Z,54.68
2024-01-21T09:12:50.554Z,52.30
2024-01-21T09:15:17.093Z,56.73
2024-01-21T09:17:43.725Z,58.40
2024-01-21T09:20:10.284Z,54.87
2024-01-21T09:22:36.894Z,51.29
2024-01-21T09:25:03.542Z,54.98
2024-01-21T09:27:30.264Z,60.73
2024-01-21T09:29:56.811Z,66.07
2024-01-21T09:32:23.348Z,66.31
2024-01-21T09:34:49.922Z,63.20
2024-01-21T09:37:16.412Z,64.49
2024-01-21T09:39:43.006Z,64.12
2024-01-21T09:42:09.519Z,64.48
2024-01-21T09:44:35.952Z,65.88
2024-01-21T09:47:02.564Z,68.77
2024-01-21T09:49:29.213Z,69.17
2024-01-21T09:51:55.940Z,67.26
2024-01-21T09:54:22.657Z,63.41
2024-01-21T09:56:49.195Z,61.31
2024-01-21T09:59:15.626Z,63.63
2024-01-21T10:01:42.230Z,60.11
2024-01-21T10:04:08.894Z,55.20
2024-01-21T10:06:35.508Z,58.07
2024-01-21T10:09:02.094Z,61.75
2024-01-21T10:11:28.570Z,64.29
2024-01-21T10:13:55.042Z,66.44
2024-01-21T10:16:21.561Z,69.35
2024-01-21T10:18:48.040Z,70.88
2024-01-21T10:21:15.425Z,71.79
2024-01-21T10:23:43.625Z,71.63
2024-01-21T10:26:11.849Z,73.56
2024-01-21T10:28:38.318Z,73.11
2024-01-21T10:31:05.416Z,74.18
2024-01-21T10:33:31.986Z,72.20
2024-01-21T10:35:58.518Z,73.81
2024-01-21T10:38:25.213Z,73.06
2024-01-21T10:40:51.698Z,73.21
2024-01-21T10:43:20.999Z,74.10
2024-01-21T10:45:49.688Z,72.31
2024-01-21T10:48:16.309Z,71.77
2024-01-21T10:50:42.800Z,72.22
2024-01-21T10:53:09.312Z,73.30
2024-01-21T10:55:35.810Z,73.42
2024-01-21T10:58:02.306Z,73.54
2024-01-21T11:00:29.012Z,74.14
2024-01-21T11:02:55.583Z,74.04
2024-01-21T11:05:22.183Z,74.35
2024-01-21T11:07:48.792Z,75.29
2024-01-21T11:10:15.285Z,74.22
2024-01-21T11:12:41.784Z,74.88
2024-01-21T11:15:08.388Z,75.40
2024-01-21T11:17:34.952Z,76.07
2024-01-21T11:20:01.479Z,75.57
2024-01-21T11:22:28.038Z,76.33
2024-01-21T11:24:54.576Z,77.41
2024-01-21T11:27:21.260Z,77.81
2024-01-21T11:29:47.844Z,76.29
2024-01-21T11:32:14.315Z,75.82
2024-01-21T11:34:40.932Z,77.82
2024-01-21T11:37:07.620Z,77.20
2024-01-21T11:39:34.150Z,77.06
2024-01-21T11:42:00.629Z,77.15
2024-01-21T11:44:30.055Z,76.80
2024-01-21T11:46:57.097Z,77.61
2024-01-21T11:49:23.540Z,77.51
2024-01-21T11:51:52.163Z,77.68
2024-01-21T11:54:19.265Z,77.79
2024-01-21T11:56:46.701Z,78.35
2024-01-21T11:59:13.432Z,77.73
2024-01-21T12:01:40.009Z,78.21
2024-01-21T12:04:06.621Z,78.71
2024-01-21T12:06:33.374Z,78.45
2024-01-21T12:09:01.113Z,78.44
2024-01-21T12:11:28.405Z,78.89
2024-01-21T12:13:55.031Z,78.96
2024-01-21T12:16:21.530Z,79.47
2024-01-21T12:18:47.992Z,79.56
2024-01-21T12:21:14.801Z,79.75
2024-01-21T12:23:43.717Z,79.77
2024-01-21T12:26:10.146Z,80.24
2024-01-21T12:28:36.687Z,80.46
2024-01-21T12:31:03.229Z,80.80
2024-01-21T12:33:30.272Z,81.43
2024-01-21T12:35:58.105Z,81.33
2024-01-21T12:38:25.044Z,82.41
2024-01-21T12:40:51.491Z,81.80
2024-01-21T12:43:18.023Z,80.34
2024-01-21T12:45:44.584Z,80.40
2024-01-21T12:48:11.110Z,81.45
2024-01-21T12:50:37.870Z,81.71
2024-01-21T12:53:04.390Z,81.84
2024-01-21T12:55:30.811Z,81.88
2024-01-21T12:57:57.452Z,82.31
2024-01-21T13:00:24.055Z,82.52
2024-01-21T13:02:50.580Z,82.37
2024-01-21T13:05:18.032Z,83.00
2024-01-21T13:07:45.017Z,82.62
2024-01-21T13:10:11.447Z,83.02
2024-01-21T13:12:39.070Z,83.22
2024-01-21T13:15:05.553Z,83.63
2024-01-21T13:17:32.052Z,83.60
2024-01-21T13:19:58.594Z,83.82
2024-01-21T13:22:25.038Z,84.31
2024-01-21T13:24:51.522Z,84.00
2024-01-21T13:27:18.181Z,84.58
2024-01-21T13:29:44.688Z,88.60
2024-01-21T13:32:11.147Z,84.89
2024-01-21T13:34:38.144Z,84.71
2024-01-21T13:37:04.731Z,85.66
2024-01-21T13:39:31.240Z,85.32
2024-01-21T13:41:57.869Z,85.97
2024-01-21T13:44:24.851Z,86.30
2024-01-21T13:46:51.630Z,86.69
2024-01-21T13:49:18.270Z,86.70
2024-01-21T13:51:44.866Z,86.38
2024-01-21T13:54:12.687Z,86.36
2024-01-21T13:56:40.341Z,86.45
2024-01-21T13:59:06.803Z,85.55
2024-01-21T14:01:33.421Z,86.05
2024-01-21T14:04:00.123Z,86.16
2024-01-21T14:06:26.683Z,85.99
2024-01-21T14:08:53.270Z,87.39
2024-01-21T14:11:19.799Z,88.52
2024-01-21T14:13:46.361Z,88.23
2024-01-21T14:16:12.826Z,89.47
2024-01-21T14:18:41.452Z,90.13
2024-01-21T14:21:08.514Z,90.56
2024-01-21T14:23:36.447Z,91.20
2024-01-21T14:26:03.025Z,91.62
2024-01-21T14:28:30.070Z,91.91
2024-01-21T14:30:56.632Z,92.33
2024-01-21T14:33:23.225Z,92.60
2024-01-21T14:35:49.739Z,91.83
2024-01-21T14:38:16.321Z,91.80
2024-01-21T14:40:45.284Z,92.73
2024-01-21T14:43:13.970Z,92.64
2024-01-21T14:45:40.522Z,92.46
2024-01-21T14:48:07.334Z,91.34
2024-01-21T14:50:33.917Z,92.51
2024-01-21T14:53:00.472Z,92.96
2024-01-21T14:55:27.102Z,92.57
2024-01-21T14:57:53.575Z,93.21
2024-01-21T15:00:20.475Z,92.62
2024-01-21T15:02:47.415Z,92.77
2024-01-21T15:05:13.854Z,93.00
2024-01-21T15:07:44.867Z,91.86
2024-01-21T15:10:14.150Z,91.79
2024-01-21T15:12:40.663Z,91.43
2024-01-21T15:15:07.167Z,91.80
2024-01-21T15:17:33.760Z,92.80
2024-01-21T15:20:00.509Z,92.00
2024-01-21T15:22:27.128Z,91.91
2024-01-21T15:24:53.703Z,91.84
2024-01-21T15:27:20.213Z,91.25
2024-01-21T15:29:46.742Z,92.31
2024-01-21T15:32:13.300Z,92.45
2024-01-21T15:34:41.188Z,92.07
2024-01-21T15:37:08.048Z,92.04
2024-01-21T15:39:34.600Z,91.94
2024-01-21T15:42:01.163Z,92.12
2024-01-21T15:44:27.935Z,93.57
2024-01-21T15:46:54.670Z,93.40
2024-01-21T15:49:21.280Z,93.20
2024-01-21T15:51:49.127Z,93.24
2024-01-21T15:54:16.034Z,93.06
2024-01-21T15:56:42.517Z,93.33
2024-01-21T15:59:08.991Z,93.22
2024-01-21T16:01:35.663Z,93.53
2024-01-21T16:04:02.368Z,94.03
2024-01-21T16:06:29.231Z,93.83
2024-01-21T16:08:55.987Z,93.29
2024-01-21T16:11:22.452Z,93.57
2024-01-21T16:13:48.949Z,94.26
2024-01-21T16:16:15.569Z,94.65
2024-01-21T16:18:42.226Z,95.15
2024-01-21T16:21:08.713Z,96.14
2024-01-21T16:23:35.784Z,95.93
2024-01-21T16:26:02.315Z,95.29
2024-01-21T16:28:28.846Z,95.27
2024-01-21T16:30:55.458Z,92.77
2024-01-21T16:33:22.115Z,92.03
2024-01-21T16:35:48.633Z,92.54
2024-01-21T16:38:15.234Z,93.41
2024-01-21T16:40:41.764Z,93.28
2024-01-21T16:43:08.264Z,93.73
2024-01-21T16:45:34.948Z,93.84
2024-01-21T16:48:01.607Z,93.87
2024-01-21T16:50:28.211Z,93.40
2024-01-21T16:52:54.737Z,92.99
2024-01-21T16:55:21.244Z,92.79
2024-01-21T16:57:47.761Z,93.87
2024-01-21T17:00:14.324Z,94.00
2024-01-21T17:02:40.805Z,92.95
2024-01-21T17:05:07.461Z,93.60
2024-01-21T17:07:34.221Z,93.70
2024-01-21T17:10:00.701Z,92.81
2024-01-21T17:12:27.156Z,92.85
2024-01-21T17:14:53.968Z,93.42
2024-01-21T17:17:20.555Z,92.34
2024-01-21T17:19:47.015Z,93.08
2024-01-21T17:22:13.695Z,92.19
2024-01-21T17:24:40.165Z,92.07
2024-01-21T17:27:06.764Z,91.97
2024-01-21T17:29:33.342Z,91.06
2024-01-21T17:31:59.841Z,91.16
2024-01-21T17:34:26.414Z,90.90
2024-01-21T17:36:53.314Z,91.29
2024-01-21T17:39:19.904Z,90.77
2024-01-21T17:41:46.421Z,90.68
2024-01-21T17:44:13.025Z,91.29
2024-01-21T17:46:39.559Z,90.59
2024-01-21T17:49:06.316Z,90.07
2024-01-21T17:51:32.981Z,90.12
2024-01-21T17:53:59.467Z,90.67
2024-01-21T17:56:25.934Z,90.15
2024-01-21T17:58:52.537Z,90.21
2024-01-21T18:01:19.134Z,90.81
2024-01-21T18:03:45.670Z,90.47
2024-01-21T18:06:12.237Z,91.04
2024-01-21T18:08:38.877Z,90.43
2024-01-21T18:11:05.434Z,90.24
2024-01-21T18:13:32.051Z,90.02
2024-01-21T18:15:58.525Z,90.17
2024-01-21T18:18:25.047Z,90.59
2024-01-21T18:20:51.703Z,90.24
2024-01-21T18:23:18.182Z,90.56
2024-01-21T18:25:44.647Z,91.14
2024-01-21T18:28:11.258Z,91.16
2024-01-21T18:30:37.728Z,91.91
2024-01-21T18:33:04.427Z,90.78
2024-01-21T18:35:31.185Z,90.56
2024-01-21T18:37:57.738Z,90.80
2024-01-21T18:40:24.204Z,90.46
2024-01-21T18:42:50.814Z,91.54
2024-01-21T18:45:17.382Z,91.74
2024-01-21T18:47:43.990Z,92.10
2024-01-21T18:50:10.613Z,91.18
2024-01-21T18:52:37.090Z,91.39
2024-01-21T18:55:03.580Z,91.32
2024-01-21T18:57:30.121Z,91.68
2024-01-21T18:59:56.642Z,92.70
2024-01-21T19:02:23.266Z,93.29
2024-01-21T19:04:50.443Z,93.40
2024-01-21T19:07:17.193Z,92.33
2024-01-21T19:09:43.881Z,92.50
2024-01-21T19:12:10.546Z,91.88
2024-01-21T19:14:37.167Z,92.20
2024-01-21T19:17:03.721Z,92.11
2024-01-21T19:19:30.337Z,92.43
2024-01-21T19:21:56.763Z,92.49
2024-01-21T19:24:23.318Z,92.89
2024-01-21T19:26:50.001Z,93.12
2024-01-21T19:29:16.448Z,92.57
2024-01-21T19:31:42.917Z,92.18
2024-01-21T19:34:09.613Z,92.63
2024-01-21T19:36:36.068Z,93.03
2024-01-21T19:39:02.574Z,92.70
2024-01-21T19:41:29.197Z,92.37
2024-01-21T19:43:55.654Z,92.71
2024-01-21T19:46:22.135Z,92.83
2024-01-21T19:48:50.935Z,93.10
2024-01-21T19:51:17.554Z,92.21
2024-01-21T19:53:43.975Z,92.53
2024-01-21T19:56:10.587Z,92.84
2024-01-21T19:58:37.050Z,92.31
2024-01-21T20:01:03.793Z,93.25
2024-01-21T20:03:30.501Z,93.18
2024-01-21T20:05:57.156Z,92.43
2024-01-21T20:08:23.732Z,92.28
2024-01-21T20:10:50.312Z,91.86
2024-01-21T20:13:16.805Z,92.41
2024-01-21T20:15:43.517Z,92.26
2024-01-21T20:18:10.133Z,92.15
2024-01-21T20:20:36.705Z,92.05
2024-01-21T20:23:03.225Z,91.83
2024-01-21T20:25:29.754Z,90.87
2024-01-21T20:27:56.227Z,91.67
2024-01-21T20:30:22.694Z,91.37
2024-01-21T20:32:49.387Z,91.88
2024-01-21T20:35:16.293Z,92.16
2024-01-21T20:37:42.745Z,91.94
2024-01-21T20:40:09.286Z,92.25
2024-01-21T20:42:35.760Z,92.17
2024-01-21T20:45:02.278Z,92.07
2024-01-21T20:47:29.046Z,91.69
2024-01-21T20:49:55.537Z,91.81
2024-01-21T20:52:21.991Z,91.94
2024-01-21T20:54:48.577Z,91.62
2024-01-21T20:57:15.108Z,92.57
2024-01-21T20:59:41.779Z,92.90
2024-01-21T21:02:08.341Z,92.38
2024-01-21T21:04:34.764Z,92.67
2024-01-21T21:07:01.299Z,92.87
2024-01-21T21:09:27.835Z,93.21
2024-01-21T21:11:54.429Z,93.30
2024-01-21T21:14:20.926Z,93.27
2024-01-21T21:16:47.455Z,93.14
2024-01-21T21:19:14.320Z,93.30
2024-01-21T21:21:40.942Z,93.51
2024-01-21T21:24:07.552Z,94.64
2024-01-21T21:26:34.167Z,95.00
2024-01-21T21:29:00.592Z,93.97
2024-01-21T21:31:27.137Z,95.17
2024-01-21T21:33:53.773Z,94.60
2024-01-21T21:36:20.358Z,94.22
2024-01-21T21:38:47.040Z,93.91
2024-01-21T21:41:13.517Z,94.04
2024-01-21T21:43:40.002Z,94.76
2024-01-21T21:46:06.593Z,94.57
2024-01-21T21:48:33.293Z,93.79
2024-01-21T21:51:00.013Z,94.39
2024-01-21T21:53:27.345Z,94.24
2024-01-21T21:55:53.913Z,95.25
2024-01-21T21:58:20.593Z,95.71
2024-01-21T22:00:48.063Z,95.01
2024-01-21T22:03:15.587Z,96.34
2024-01-21T22:05:42.294Z,97.14
2024-01-21T22:08:09.246Z,97.22
2024-01-21T22:10:36.551Z,96.71
2024-01-21T22:13:03.095Z,95.36
2024-01-21T22:15:29.638Z,96.47
2024-01-21T22:17:56.261Z,96.71
2024-01-21T22:20:22.956Z,95.00
2024-01-21T22:22:50.305Z,95.17
2024-01-21T22:25:16.766Z,95.41
2024-01-21T22:27:43.217Z,97.85
2024-01-21T22:30:09.829Z,96.39
2024-01-21T22:32:36.446Z,95.34
2024-01-21T22:35:03.112Z,95.93
2024-01-21T22:37:30.409Z,95.44
2024-01-21T22:39:56.846Z,95.65
2024-01-21T22:42:23.292Z,96.65
2024-01-21T22:44:49.851Z,96.93
2024-01-21T22:47:16.382Z,97.83
2024-01-21T22:49:42.943Z,97.47
2024-01-21T22:52:09.746Z,96.98
2024-01-21T22:54:36.398Z,97.06
2024-01-21T22:57:02.960Z,96.91
2024-01-21T22:59:29.551Z,97.62
2024-01-21T23:01:55.997Z,97.82
2024-01-21T23:04:22.479Z,96.95
2024-01-21T23:06:49.118Z,98.13
2024-01-21T23:09:15.631Z,99.02
2024-01-21T23:11:42.243Z,98.31
2024-01-21T23:14:08.846Z,98.04
2024-01-21T23:16:35.308Z,97.04
2024-01-21T23:19:01.831Z,95.66
2024-01-21T23:21:28.432Z,96.34
2024-01-21T23:23:54.972Z,96.76
2024-01-21T23:26:21.420Z,97.15
2024-01-21T23:28:47.952Z,97.18
2024-01-21T23:31:14.544Z,97.66
2024-01-21T23:33:41.107Z,97.09
2024-01-21T23:36:07.777Z,96.72
2024-01-21T23:38:34.262Z,96.16
2024-01-21T23:41:00.739Z,96.16
2024-01-21T23:43:27.302Z,96.33
2024-01-21T23:45:53.783Z,96.65
2024-01-21T23:48:20.314Z,95.46
2024-01-21T23:50:46.894Z,96.05
2024-01-21T23:53:13.402Z,96.58
2024-01-21T23:55:39.898Z,95.99
2024-01-21T23:58:06.481Z,95.49
